sensor_id;sensor_type;location;lat;lon;timestamp;P1;durP1;ratioP1;P2;durP2;ratioP2
78004;SDS011;67209;51.698;-0.292;2023-02-23T00:00:34;14.32;;;6.38;;
78004;SDS011;67209;51.698;-0.292;2023-02-23T00:03:00;9.52;;;5.13;;
78004;SDS011;67209;51.698;-0.292;2023-02-23T00:05:27;12.10;;;5.90;;
78004;SDS011;67209;51.698;-0.292;2023-02-23T00:07:54;7.68;;;4.72;;
78004;SDS011;67209;51.698;-0.292;2023-02-23T00:10:20;10.65;;;5.15;;
78004;SDS011;67209;51.698;-0.292;2023-02-23T00:12:49;5.72;;;2.95;;
78004;SDS011;67209;51.698;-0.292;2023-02-23T00:15:15;6.80;;;2.42;;
78004;SDS011;67209;51.698;-0.292;2023-02-23T00:17:41;9.98;;;4.65;;
78004;SDS011;67209;51.698;-0.292;2023-02-23T00:20:08;7.18;;;3.55;;
78004;SDS011;67209;51.698;-0.292;2023-02-23T00:22:36;4.47;;;2.30;;
78004;SDS011;67209;51.698;-0.292;2023-02-23T00:25:04;9.32;;;4.45;;
78004;SDS011;67209;51.698;-0.292;2023-02-23T00:27:33;6.47;;;3.00;;
78004;SDS011;67209;51.698;-0.292;2023-02-23T00:30:00;12.18;;;4.97;;
78004;SDS011;67209;51.698;-0.292;2023-02-23T00:32:26;8.55;;;4.85;;
78004;SDS011;67209;51.698;-0.292;2023-02-23T00:34:52;4.32;;;2.22;;
78004;SDS011;67209;51.698;-0.292;2023-02-23T00:37:18;4.95;;;2.50;;
78004;SDS011;67209;51.698;-0.292;2023-02-23T00:39:46;4.55;;;2.65;;
78004;SDS011;67209;51.698;-0.292;2023-02-23T00:42:12;9.75;;;4.43;;
78004;SDS011;67209;51.698;-0.292;2023-02-23T00:44:39;8.80;;;4.15;;
78004;SDS011;67209;51.698;-0.292;2023-02-23T00:47:06;5.35;;;3.05;;
78004;SDS011;67209;51.698;-0.292;2023-02-23T00:49:32;9.35;;;3.92;;
78004;SDS011;67209;51.698;-0.292;2023-02-23T00:51:58;8.57;;;4.07;;
78004;SDS011;67209;51.698;-0.292;2023-02-23T00:54:24;8.93;;;4.10;;
78004;SDS011;67209;51.698;-0.292;2023-02-23T00:56:50;2.97;;;1.95;;
78004;SDS011;67209;51.698;-0.292;2023-02-23T00:59:17;10.50;;;4.68;;
78004;SDS011;67209;51.698;-0.292;2023-02-23T01:01:43;5.60;;;2.67;;
78004;SDS011;67209;51.698;-0.292;2023-02-23T01:04:10;8.50;;;3.75;;
78004;SDS011;67209;51.698;-0.292;2023-02-23T01:06:37;8.13;;;3.78;;
78004;SDS011;67209;51.698;-0.292;2023-02-23T01:09:09;5.50;;;2.17;;
78004;SDS011;67209;51.698;-0.292;2023-02-23T01:11:35;10.02;;;4.03;;
78004;SDS011;67209;51.698;-0.292;2023-02-23T01:14:01;8.15;;;4.22;;
78004;SDS011;67209;51.698;-0.292;2023-02-23T01:16:28;10.30;;;4.53;;
78004;SDS011;67209;51.698;-0.292;2023-02-23T01:18:56;14.07;;;5.38;;
78004;SDS011;67209;51.698;-0.292;2023-02-23T01:21:23;13.73;;;5.47;;
78004;SDS011;67209;51.698;-0.292;2023-02-23T01:23:50;12.65;;;4.75;;
78004;SDS011;67209;51.698;-0.292;2023-02-23T01:26:20;12.30;;;4.43;;
78004;SDS011;67209;51.698;-0.292;2023-02-23T01:28:50;5.60;;;2.28;;
78004;SDS011;67209;51.698;-0.292;2023-02-23T01:31:16;6.10;;;2.88;;
78004;SDS011;67209;51.698;-0.292;2023-02-23T01:33:42;9.07;;;2.72;;
78004;SDS011;67209;51.698;-0.292;2023-02-23T01:36:09;5.78;;;2.38;;
78004;SDS011;67209;51.698;-0.292;2023-02-23T01:38:37;7.07;;;3.03;;
78004;SDS011;67209;51.698;-0.292;2023-02-23T01:41:03;14.68;;;4.70;;
78004;SDS011;67209;51.698;-0.292;2023-02-23T01:43:31;13.18;;;4.40;;
78004;SDS011;67209;51.698;-0.292;2023-02-23T01:45:57;8.70;;;3.92;;
78004;SDS011;67209;51.698;-0.292;2023-02-23T01:48:30;10.43;;;3.78;;
78004;SDS011;67209;51.698;-0.292;2023-02-23T01:53:25;6.25;;;2.72;;
78004;SDS011;67209;51.698;-0.292;2023-02-23T01:55:52;3.42;;;1.27;;
78004;SDS011;67209;51.698;-0.292;2023-02-23T01:58:20;5.07;;;1.90;;
78004;SDS011;67209;51.698;-0.292;2023-02-23T02:00:59;6.45;;;3.00;;
78004;SDS011;67209;51.698;-0.292;2023-02-23T02:05:52;2.92;;;1.55;;
78004;SDS011;67209;51.698;-0.292;2023-02-23T02:08:19;5.60;;;2.53;;
78004;SDS011;67209;51.698;-0.292;2023-02-23T02:10:47;5.88;;;2.00;;
78004;SDS011;67209;51.698;-0.292;2023-02-23T02:13:19;6.50;;;2.83;;
78004;SDS011;67209;51.698;-0.292;2023-02-23T02:21:19;5.50;;;2.42;;
78004;SDS011;67209;51.698;-0.292;2023-02-23T02:31:28;7.30;;;2.38;;
78004;SDS011;67209;51.698;-0.292;2023-02-23T02:39:09;4.22;;;2.10;;
78004;SDS011;67209;51.698;-0.292;2023-02-23T02:41:51;6.88;;;2.55;;
78004;SDS011;67209;51.698;-0.292;2023-02-23T02:46:52;4.00;;;2.13;;
78004;SDS011;67209;51.698;-0.292;2023-02-23T02:49:25;3.50;;;2.08;;
78004;SDS011;67209;51.698;-0.292;2023-02-23T02:54:30;6.25;;;3.15;;
78004;SDS011;67209;51.698;-0.292;2023-02-23T02:56:58;4.22;;;2.22;;
78004;SDS011;67209;51.698;-0.292;2023-02-23T02:59:26;7.38;;;3.58;;
78004;SDS011;67209;51.698;-0.292;2023-02-23T03:02:15;5.70;;;2.80;;
78004;SDS011;67209;51.698;-0.292;2023-02-23T03:05:00;5.18;;;1.85;;
78004;SDS011;67209;51.698;-0.292;2023-02-23T03:07:51;4.75;;;2.47;;
78004;SDS011;67209;51.698;-0.292;2023-02-23T03:16:14;5.70;;;2.65;;
78004;SDS011;67209;51.698;-0.292;2023-02-23T03:21:49;10.30;;;3.78;;
78004;SDS011;67209;51.698;-0.292;2023-02-23T03:24:45;10.20;;;4.25;;
78004;SDS011;67209;51.698;-0.292;2023-02-23T03:33:29;5.35;;;2.53;;
78004;SDS011;67209;51.698;-0.292;2023-02-23T03:36:18;3.35;;;1.95;;
78004;SDS011;67209;51.698;-0.292;2023-02-23T03:39:09;8.63;;;3.35;;
78004;SDS011;67209;51.698;-0.292;2023-02-23T03:41:56;3.42;;;1.83;;
78004;SDS011;67209;51.698;-0.292;2023-02-23T03:44:44;8.57;;;3.50;;
78004;SDS011;67209;51.698;-0.292;2023-02-23T03:47:30;10.70;;;4.15;;
78004;SDS011;67209;51.698;-0.292;2023-02-23T03:50:20;6.70;;;3.33;;
78004;SDS011;67209;51.698;-0.292;2023-02-23T03:53:05;11.90;;;4.03;;
78004;SDS011;67209;51.698;-0.292;2023-02-23T03:55:52;4.07;;;1.52;;
78004;SDS011;67209;51.698;-0.292;2023-02-23T03:58:43;7.75;;;3.90;;
78004;SDS011;67209;51.698;-0.292;2023-02-23T04:01:30;10.77;;;4.85;;
78004;SDS011;67209;51.698;-0.292;2023-02-23T04:04:15;9.77;;;3.90;;
78004;SDS011;67209;51.698;-0.292;2023-02-23T04:07:00;3.10;;;1.17;;
78004;SDS011;67209;51.698;-0.292;2023-02-23T04:09:46;3.78;;;2.25;;
78004;SDS011;67209;51.698;-0.292;2023-02-23T04:18:02;6.63;;;3.38;;
78004;SDS011;67209;51.698;-0.292;2023-02-23T04:20:28;1.55;;;1.23;;
78004;SDS011;67209;51.698;-0.292;2023-02-23T04:22:54;5.95;;;2.97;;
78004;SDS011;67209;51.698;-0.292;2023-02-23T04:25:20;5.18;;;2.63;;
78004;SDS011;67209;51.698;-0.292;2023-02-23T04:27:47;4.00;;;1.85;;
78004;SDS011;67209;51.698;-0.292;2023-02-23T04:30:13;4.53;;;1.67;;
78004;SDS011;67209;51.698;-0.292;2023-02-23T04:32:39;5.78;;;2.88;;
78004;SDS011;67209;51.698;-0.292;2023-02-23T04:35:05;1.35;;;0.88;;
78004;SDS011;67209;51.698;-0.292;2023-02-23T04:37:31;5.93;;;2.10;;
78004;SDS011;67209;51.698;-0.292;2023-02-23T04:39:57;4.00;;;1.92;;
78004;SDS011;67209;51.698;-0.292;2023-02-23T04:42:23;5.40;;;1.77;;
78004;SDS011;67209;51.698;-0.292;2023-02-23T04:44:49;3.95;;;1.52;;
78004;SDS011;67209;51.698;-0.292;2023-02-23T04:47:16;7.45;;;2.90;;
78004;SDS011;67209;51.698;-0.292;2023-02-23T04:49:42;3.60;;;1.88;;
78004;SDS011;67209;51.698;-0.292;2023-02-23T04:52:08;6.63;;;3.30;;
78004;SDS011;67209;51.698;-0.292;2023-02-23T04:54:38;3.47;;;1.65;;
78004;SDS011;67209;51.698;-0.292;2023-02-23T04:57:04;3.35;;;1.20;;
78004;SDS011;67209;51.698;-0.292;2023-02-23T04:59:30;1.90;;;1.63;;
78004;SDS011;67209;51.698;-0.292;2023-02-23T05:01:57;4.80;;;1.40;;
78004;SDS011;67209;51.698;-0.292;2023-02-23T05:04:23;5.05;;;1.58;;
78004;SDS011;67209;51.698;-0.292;2023-02-23T05:06:49;2.45;;;1.40;;
78004;SDS011;67209;51.698;-0.292;2023-02-23T05:09:15;5.80;;;2.10;;
78004;SDS011;67209;51.698;-0.292;2023-02-23T05:11:41;1.98;;;0.85;;
78004;SDS011;67209;51.698;-0.292;2023-02-23T05:14:07;4.20;;;1.45;;
78004;SDS011;67209;51.698;-0.292;2023-02-23T05:16:34;1.73;;;1.00;;
78004;SDS011;67209;51.698;-0.292;2023-02-23T05:19:00;4.68;;;2.35;;
78004;SDS011;67209;51.698;-0.292;2023-02-23T05:21:26;1.70;;;1.02;;
78004;SDS011;67209;51.698;-0.292;2023-02-23T05:23:52;5.22;;;2.05;;
78004;SDS011;67209;51.698;-0.292;2023-02-23T05:26:18;8.55;;;2.45;;
78004;SDS011;67209;51.698;-0.292;2023-02-23T05:28:44;4.78;;;1.27;;
78004;SDS011;67209;51.698;-0.292;2023-02-23T05:31:10;4.45;;;2.03;;
78004;SDS011;67209;51.698;-0.292;2023-02-23T05:33:37;1.80;;;1.08;;
78004;SDS011;67209;51.698;-0.292;2023-02-23T05:36:09;4.18;;;1.85;;
78004;SDS011;67209;51.698;-0.292;2023-02-23T05:38:36;1.77;;;1.15;;
78004;SDS011;67209;51.698;-0.292;2023-02-23T05:41:08;1.42;;;0.70;;
78004;SDS011;67209;51.698;-0.292;2023-02-23T05:43:35;5.97;;;2.10;;
78004;SDS011;67209;51.698;-0.292;2023-02-23T05:46:04;2.83;;;1.33;;
78004;SDS011;67209;51.698;-0.292;2023-02-23T05:48:30;4.07;;;1.58;;
78004;SDS011;67209;51.698;-0.292;2023-02-23T05:51:08;2.42;;;1.17;;
78004;SDS011;67209;51.698;-0.292;2023-02-23T05:53:35;3.60;;;1.77;;
78004;SDS011;67209;51.698;-0.292;2023-02-23T05:56:02;7.05;;;2.30;;
78004;SDS011;67209;51.698;-0.292;2023-02-23T05:58:28;2.58;;;1.17;;
78004;SDS011;67209;51.698;-0.292;2023-02-23T06:00:55;4.35;;;1.98;;
78004;SDS011;67209;51.698;-0.292;2023-02-23T06:03:21;2.75;;;1.13;;
78004;SDS011;67209;51.698;-0.292;2023-02-23T06:05:50;2.83;;;1.45;;
78004;SDS011;67209;51.698;-0.292;2023-02-23T06:08:16;1.33;;;0.68;;
78004;SDS011;67209;51.698;-0.292;2023-02-23T06:10:42;1.55;;;0.60;;
78004;SDS011;67209;51.698;-0.292;2023-02-23T06:13:09;0.93;;;0.52;;
78004;SDS011;67209;51.698;-0.292;2023-02-23T06:15:35;4.03;;;1.15;;
78004;SDS011;67209;51.698;-0.292;2023-02-23T06:18:01;0.60;;;0.35;;
78004;SDS011;67209;51.698;-0.292;2023-02-23T06:20:27;3.60;;;0.98;;
78004;SDS011;67209;51.698;-0.292;2023-02-23T06:22:53;4.95;;;0.85;;
78004;SDS011;67209;51.698;-0.292;2023-02-23T06:25:19;3.38;;;0.35;;
78004;SDS011;67209;51.698;-0.292;2023-02-23T06:27:45;1.33;;;0.82;;
78004;SDS011;67209;51.698;-0.292;2023-02-23T06:30:11;2.70;;;0.73;;
78004;SDS011;67209;51.698;-0.292;2023-02-23T06:32:37;1.08;;;0.47;;
78004;SDS011;67209;51.698;-0.292;2023-02-23T06:35:04;3.10;;;0.85;;
78004;SDS011;67209;51.698;-0.292;2023-02-23T06:37:31;0.57;;;0.28;;
78004;SDS011;67209;51.698;-0.292;2023-02-23T06:39:57;0.45;;;0.15;;
78004;SDS011;67209;51.698;-0.292;2023-02-23T06:42:23;3.08;;;0.20;;
78004;SDS011;67209;51.698;-0.292;2023-02-23T06:44:49;1.17;;;0.25;;
78004;SDS011;67209;51.698;-0.292;2023-02-23T06:47:15;3.40;;;0.40;;
78004;SDS011;67209;51.698;-0.292;2023-02-23T06:49:41;1.63;;;0.60;;
78004;SDS011;67209;51.698;-0.292;2023-02-23T06:52:07;3.92;;;0.60;;
78004;SDS011;67209;51.698;-0.292;2023-02-23T06:54:34;3.70;;;1.00;;
78004;SDS011;67209;51.698;-0.292;2023-02-23T06:57:02;4.15;;;1.20;;
78004;SDS011;67209;51.698;-0.292;2023-02-23T06:59:28;2.35;;;0.47;;
78004;SDS011;67209;51.698;-0.292;2023-02-23T07:01:54;18.40;;;1.38;;
78004;SDS011;67209;51.698;-0.292;2023-02-23T07:04:20;0.95;;;0.40;;
78004;SDS011;67209;51.698;-0.292;2023-02-23T07:06:46;2.28;;;0.55;;
78004;SDS011;67209;51.698;-0.292;2023-02-23T07:09:12;2.97;;;0.73;;
78004;SDS011;67209;51.698;-0.292;2023-02-23T07:11:41;7.50;;;1.38;;
78004;SDS011;67209;51.698;-0.292;2023-02-23T07:14:09;1.65;;;0.30;;
78004;SDS011;67209;51.698;-0.292;2023-02-23T07:16:35;5.22;;;0.93;;
78004;SDS011;67209;51.698;-0.292;2023-02-23T07:19:03;9.88;;;1.50;;
78004;SDS011;67209;51.698;-0.292;2023-02-23T07:21:29;4.00;;;0.88;;
78004;SDS011;67209;51.698;-0.292;2023-02-23T07:23:56;4.07;;;0.65;;
78004;SDS011;67209;51.698;-0.292;2023-02-23T07:26:22;10.68;;;1.73;;
78004;SDS011;67209;51.698;-0.292;2023-02-23T07:28:49;2.15;;;0.65;;
78004;SDS011;67209;51.698;-0.292;2023-02-23T07:31:15;5.68;;;0.80;;
78004;SDS011;67209;51.698;-0.292;2023-02-23T07:33:41;1.25;;;0.47;;
78004;SDS011;67209;51.698;-0.292;2023-02-23T07:36:07;2.90;;;0.38;;
78004;SDS011;67209;51.698;-0.292;2023-02-23T07:38:33;13.75;;;1.15;;
78004;SDS011;67209;51.698;-0.292;2023-02-23T07:41:00;3.78;;;0.80;;
78004;SDS011;67209;51.698;-0.292;2023-02-23T07:43:26;32.40;;;3.17;;
78004;SDS011;67209;51.698;-0.292;2023-02-23T07:45:52;8.23;;;1.25;;
78004;SDS011;67209;51.698;-0.292;2023-02-23T07:48:18;6.57;;;1.42;;
78004;SDS011;67209;51.698;-0.292;2023-02-23T07:50:44;4.38;;;1.05;;
78004;SDS011;67209;51.698;-0.292;2023-02-23T07:53:10;14.52;;;1.05;;
78004;SDS011;67209;51.698;-0.292;2023-02-23T07:55:39;1.23;;;0.50;;
78004;SDS011;67209;51.698;-0.292;2023-02-23T07:58:06;1.08;;;0.30;;
78004;SDS011;67209;51.698;-0.292;2023-02-23T08:00:33;1.85;;;0.20;;
78004;SDS011;67209;51.698;-0.292;2023-02-23T08:02:59;1.65;;;0.45;;
78004;SDS011;67209;51.698;-0.292;2023-02-23T08:05:25;0.88;;;0.43;;
78004;SDS011;67209;51.698;-0.292;2023-02-23T08:07:52;1.17;;;0.40;;
78004;SDS011;67209;51.698;-0.292;2023-02-23T08:10:18;0.30;;;0.20;;
78004;SDS011;67209;51.698;-0.292;2023-02-23T08:12:44;0.65;;;0.45;;
78004;SDS011;67209;51.698;-0.292;2023-02-23T08:15:10;6.38;;;0.70;;
78004;SDS011;67209;51.698;-0.292;2023-02-23T08:17:37;3.33;;;0.40;;
78004;SDS011;67209;51.698;-0.292;2023-02-23T08:20:04;2.85;;;0.52;;
78004;SDS011;67209;51.698;-0.292;2023-02-23T08:22:30;3.13;;;0.80;;
78004;SDS011;67209;51.698;-0.292;2023-02-23T08:24:56;1.75;;;0.25;;
78004;SDS011;67209;51.698;-0.292;2023-02-23T08:27:22;1.80;;;0.30;;
78004;SDS011;67209;51.698;-0.292;2023-02-23T08:29:49;3.80;;;0.38;;
78004;SDS011;67209;51.698;-0.292;2023-02-23T08:32:17;4.55;;;1.00;;
78004;SDS011;67209;51.698;-0.292;2023-02-23T08:34:43;1.38;;;0.85;;
78004;SDS011;67209;51.698;-0.292;2023-02-23T08:37:09;7.00;;;0.90;;
78004;SDS011;67209;51.698;-0.292;2023-02-23T08:39:36;1.63;;;0.50;;
78004;SDS011;67209;51.698;-0.292;2023-02-23T08:42:02;4.63;;;0.45;;
78004;SDS011;67209;51.698;-0.292;2023-02-23T08:44:28;2.53;;;0.20;;
78004;SDS011;67209;51.698;-0.292;2023-02-23T08:46:54;2.20;;;0.38;;
78004;SDS011;67209;51.698;-0.292;2023-02-23T08:49:22;1.90;;;0.57;;
78004;SDS011;67209;51.698;-0.292;2023-02-23T08:51:49;5.55;;;0.47;;
78004;SDS011;67209;51.698;-0.292;2023-02-23T08:54:15;4.07;;;0.50;;
78004;SDS011;67209;51.698;-0.292;2023-02-23T08:56:42;5.43;;;0.95;;
78004;SDS011;67209;51.698;-0.292;2023-02-23T08:59:13;5.70;;;0.93;;
78004;SDS011;67209;51.698;-0.292;2023-02-23T09:01:39;1.60;;;0.45;;
78004;SDS011;67209;51.698;-0.292;2023-02-23T09:04:06;12.50;;;1.63;;
78004;SDS011;67209;51.698;-0.292;2023-02-23T09:06:32;1.30;;;0.45;;
78004;SDS011;67209;51.698;-0.292;2023-02-23T09:08:59;4.05;;;0.50;;
78004;SDS011;67209;51.698;-0.292;2023-02-23T09:11:26;1.08;;;0.82;;
78004;SDS011;67209;51.698;-0.292;2023-02-23T09:13:52;2.60;;;0.57;;
78004;SDS011;67209;51.698;-0.292;2023-02-23T09:16:18;3.28;;;0.50;;
78004;SDS011;67209;51.698;-0.292;2023-02-23T09:18:44;1.52;;;0.50;;
78004;SDS011;67209;51.698;-0.292;2023-02-23T09:21:14;5.43;;;0.80;;
78004;SDS011;67209;51.698;-0.292;2023-02-23T09:23:42;1.92;;;0.30;;
78004;SDS011;67209;51.698;-0.292;2023-02-23T09:26:09;5.25;;;0.35;;
78004;SDS011;67209;51.698;-0.292;2023-02-23T09:28:35;3.05;;;0.65;;
78004;SDS011;67209;51.698;-0.292;2023-02-23T09:31:07;4.03;;;0.55;;
78004;SDS011;67209;51.698;-0.292;2023-02-23T09:33:33;2.90;;;0.47;;
78004;SDS011;67209;51.698;-0.292;2023-02-23T09:36:00;2.55;;;0.30;;
78004;SDS011;67209;51.698;-0.292;2023-02-23T09:38:28;1.38;;;0.30;;
78004;SDS011;67209;51.698;-0.292;2023-02-23T09:40:55;1.38;;;0.65;;
78004;SDS011;67209;51.698;-0.292;2023-02-23T09:46:05;1.48;;;0.30;;
78004;SDS011;67209;51.698;-0.292;2023-02-23T09:48:33;3.80;;;0.40;;
78004;SDS011;67209;51.698;-0.292;2023-02-23T09:50:59;2.05;;;0.17;;
78004;SDS011;67209;51.698;-0.292;2023-02-23T09:53:30;0.63;;;0.13;;
78004;SDS011;67209;51.698;-0.292;2023-02-23T09:55:57;1.35;;;0.20;;
78004;SDS011;67209;51.698;-0.292;2023-02-23T09:58:24;0.20;;;0.20;;
78004;SDS011;67209;51.698;-0.292;2023-02-23T10:01:40;0.73;;;0.17;;
78004;SDS011;67209;51.698;-0.292;2023-02-23T10:03:38;24.67;;;1.77;;
78004;SDS011;67209;51.698;-0.292;2023-02-23T10:06:05;1.10;;;0.20;;
78004;SDS011;67209;51.698;-0.292;2023-02-23T10:13:36;3.28;;;0.95;;
78004;SDS011;67209;51.698;-0.292;2023-02-23T10:18:49;3.17;;;0.50;;
78004;SDS011;67209;51.698;-0.292;2023-02-23T10:21:29;0.80;;;0.30;;
78004;SDS011;67209;51.698;-0.292;2023-02-23T10:24:00;3.42;;;0.50;;
78004;SDS011;67209;51.698;-0.292;2023-02-23T10:26:31;8.10;;;0.73;;
78004;SDS011;67209;51.698;-0.292;2023-02-23T10:28:58;3.17;;;0.50;;
78004;SDS011;67209;51.698;-0.292;2023-02-23T10:31:39;1.27;;;0.30;;
78004;SDS011;67209;51.698;-0.292;2023-02-23T10:34:09;7.10;;;0.80;;
78004;SDS011;67209;51.698;-0.292;2023-02-23T10:36:40;12.00;;;1.20;;
78004;SDS011;67209;51.698;-0.292;2023-02-23T10:39:08;3.83;;;0.50;;
78004;SDS011;67209;51.698;-0.292;2023-02-23T10:41:36;15.73;;;1.17;;
78004;SDS011;67209;51.698;-0.292;2023-02-23T10:44:03;2.58;;;0.55;;
78004;SDS011;67209;51.698;-0.292;2023-02-23T10:46:34;4.60;;;0.70;;
78004;SDS011;67209;51.698;-0.292;2023-02-23T10:49:01;3.63;;;0.63;;
78004;SDS011;67209;51.698;-0.292;2023-02-23T10:51:29;4.82;;;0.70;;
78004;SDS011;67209;51.698;-0.292;2023-02-23T10:53:57;4.57;;;0.88;;
78004;SDS011;67209;51.698;-0.292;2023-02-23T10:56:23;3.83;;;0.73;;
78004;SDS011;67209;51.698;-0.292;2023-02-23T10:58:52;1.60;;;0.55;;
78004;SDS011;67209;51.698;-0.292;2023-02-23T11:04:11;1.52;;;0.47;;
78004;SDS011;67209;51.698;-0.292;2023-02-23T11:06:38;4.30;;;0.80;;
78004;SDS011;67209;51.698;-0.292;2023-02-23T11:14:25;2.58;;;0.57;;
78004;SDS011;67209;51.698;-0.292;2023-02-23T11:16:52;2.00;;;1.13;;
78004;SDS011;67209;51.698;-0.292;2023-02-23T11:19:39;5.00;;;0.70;;
78004;SDS011;67209;51.698;-0.292;2023-02-23T11:22:04;5.22;;;0.80;;
78004;SDS011;67209;51.698;-0.292;2023-02-23T11:24:32;7.05;;;0.82;;
78004;SDS011;67209;51.698;-0.292;2023-02-23T11:26:59;4.43;;;0.70;;
78004;SDS011;67209;51.698;-0.292;2023-02-23T11:32:01;3.70;;;0.60;;
78004;SDS011;67209;51.698;-0.292;2023-02-23T11:34:32;5.05;;;1.23;;
78004;SDS011;67209;51.698;-0.292;2023-02-23T11:39:25;8.30;;;1.05;;
78004;SDS011;67209;51.698;-0.292;2023-02-23T11:44:29;9.10;;;1.38;;
78004;SDS011;67209;51.698;-0.292;2023-02-23T11:46:55;3.90;;;0.65;;
78004;SDS011;67209;51.698;-0.292;2023-02-23T11:49:26;2.70;;;0.77;;
78004;SDS011;67209;51.698;-0.292;2023-02-23T11:51:53;4.30;;;1.13;;
78004;SDS011;67209;51.698;-0.292;2023-02-23T11:54:24;4.43;;;0.70;;
78004;SDS011;67209;51.698;-0.292;2023-02-23T11:56:52;2.97;;;0.60;;
78004;SDS011;67209;51.698;-0.292;2023-02-23T11:59:22;4.28;;;0.80;;
78004;SDS011;67209;51.698;-0.292;2023-02-23T12:01:49;7.45;;;1.40;;
78004;SDS011;67209;51.698;-0.292;2023-02-23T12:04:29;6.43;;;1.00;;
78004;SDS011;67209;51.698;-0.292;2023-02-23T12:07:17;4.55;;;0.80;;
78004;SDS011;67209;51.698;-0.292;2023-02-23T12:09:45;6.68;;;1.10;;
78004;SDS011;67209;51.698;-0.292;2023-02-23T12:12:14;11.15;;;1.17;;
78004;SDS011;67209;51.698;-0.292;2023-02-23T12:14:47;5.93;;;0.82;;
78004;SDS011;67209;51.698;-0.292;2023-02-23T12:17:21;6.80;;;0.93;;
78004;SDS011;67209;51.698;-0.292;2023-02-23T12:22:37;5.80;;;0.80;;
78004;SDS011;67209;51.698;-0.292;2023-02-23T12:25:22;4.43;;;0.85;;
78004;SDS011;67209;51.698;-0.292;2023-02-23T12:30:47;6.78;;;1.00;;
78004;SDS011;67209;51.698;-0.292;2023-02-23T12:33:24;1.88;;;0.98;;
78004;SDS011;67209;51.698;-0.292;2023-02-23T12:38:35;4.82;;;1.05;;
78004;SDS011;67209;51.698;-0.292;2023-02-23T12:41:10;3.55;;;0.38;;
78004;SDS011;67209;51.698;-0.292;2023-02-23T12:46:23;2.30;;;0.60;;
78004;SDS011;67209;51.698;-0.292;2023-02-23T12:51:35;2.78;;;0.82;;
78004;SDS011;67209;51.698;-0.292;2023-02-23T12:54:03;3.25;;;0.90;;
78004;SDS011;67209;51.698;-0.292;2023-02-23T12:56:42;4.25;;;0.85;;
78004;SDS011;67209;51.698;-0.292;2023-02-23T13:02:24;7.65;;;0.52;;
78004;SDS011;67209;51.698;-0.292;2023-02-23T13:07:26;5.57;;;1.13;;
78004;SDS011;67209;51.698;-0.292;2023-02-23T13:13:11;1.77;;;0.38;;
78004;SDS011;67209;51.698;-0.292;2023-02-23T13:20:20;3.42;;;0.75;;
78004;SDS011;67209;51.698;-0.292;2023-02-23T13:22:51;6.22;;;0.88;;
78004;SDS011;67209;51.698;-0.292;2023-02-23T13:27:56;3.60;;;0.63;;
78004;SDS011;67209;51.698;-0.292;2023-02-23T13:30:24;4.97;;;0.50;;
78004;SDS011;67209;51.698;-0.292;2023-02-23T13:32:50;2.00;;;0.50;;
78004;SDS011;67209;51.698;-0.292;2023-02-23T13:35:17;6.10;;;0.95;;
78004;SDS011;67209;51.698;-0.292;2023-02-23T13:37:53;4.28;;;1.15;;
78004;SDS011;67209;51.698;-0.292;2023-02-23T13:48:12;4.03;;;0.80;;
78004;SDS011;67209;51.698;-0.292;2023-02-23T13:53:39;6.53;;;1.30;;
78004;SDS011;67209;51.698;-0.292;2023-02-23T13:56:20;1.88;;;0.75;;
78004;SDS011;67209;51.698;-0.292;2023-02-23T14:03:57;5.95;;;1.10;;
78004;SDS011;67209;51.698;-0.292;2023-02-23T14:06:25;8.68;;;0.98;;
78004;SDS011;67209;51.698;-0.292;2023-02-23T14:08:53;9.07;;;1.23;;
78004;SDS011;67209;51.698;-0.292;2023-02-23T14:11:33;10.27;;;1.45;;
78004;SDS011;67209;51.698;-0.292;2023-02-23T14:14:04;6.03;;;1.40;;
78004;SDS011;67209;51.698;-0.292;2023-02-23T14:16:31;8.07;;;1.40;;
78004;SDS011;67209;51.698;-0.292;2023-02-23T14:21:43;6.32;;;0.77;;
78004;SDS011;67209;51.698;-0.292;2023-02-23T14:24:22;7.90;;;1.27;;
78004;SDS011;67209;51.698;-0.292;2023-02-23T14:29:28;5.72;;;1.13;;
78004;SDS011;67209;51.698;-0.292;2023-02-23T14:32:25;10.35;;;0.70;;
78004;SDS011;67209;51.698;-0.292;2023-02-23T14:34:50;5.70;;;0.80;;
78004;SDS011;67209;51.698;-0.292;2023-02-23T14:39:51;8.57;;;1.20;;
78004;SDS011;67209;51.698;-0.292;2023-02-23T14:42:22;3.28;;;0.60;;
78004;SDS011;67209;51.698;-0.292;2023-02-23T14:44:49;3.63;;;0.82;;
78004;SDS011;67209;51.698;-0.292;2023-02-23T14:47:19;7.63;;;0.95;;
78004;SDS011;67209;51.698;-0.292;2023-02-23T14:49:47;9.45;;;1.13;;
78004;SDS011;67209;51.698;-0.292;2023-02-23T14:54:46;7.22;;;1.92;;
78004;SDS011;67209;51.698;-0.292;2023-02-23T14:57:16;3.05;;;0.65;;
78004;SDS011;67209;51.698;-0.292;2023-02-23T14:59:43;8.60;;;1.50;;
78004;SDS011;67209;51.698;-0.292;2023-02-23T15:02:30;8.70;;;1.55;;
78004;SDS011;67209;51.698;-0.292;2023-02-23T15:04:56;7.75;;;1.25;;
78004;SDS011;67209;51.698;-0.292;2023-02-23T15:07:38;9.07;;;1.83;;
78004;SDS011;67209;51.698;-0.292;2023-02-23T15:12:35;5.47;;;1.20;;
78004;SDS011;67209;51.698;-0.292;2023-02-23T15:15:02;5.60;;;1.17;;
78004;SDS011;67209;51.698;-0.292;2023-02-23T15:17:30;4.78;;;0.93;;
78004;SDS011;67209;51.698;-0.292;2023-02-23T15:19:58;7.15;;;1.05;;
78004;SDS011;67209;51.698;-0.292;2023-02-23T15:24:50;5.63;;;0.98;;
78004;SDS011;67209;51.698;-0.292;2023-02-23T15:27:18;3.67;;;0.95;;
78004;SDS011;67209;51.698;-0.292;2023-02-23T15:29:46;4.68;;;0.73;;
78004;SDS011;67209;51.698;-0.292;2023-02-23T15:32:17;3.83;;;1.25;;
78004;SDS011;67209;51.698;-0.292;2023-02-23T15:34:44;6.65;;;1.30;;
78004;SDS011;67209;51.698;-0.292;2023-02-23T15:37:11;5.95;;;1.05;;
78004;SDS011;67209;51.698;-0.292;2023-02-23T15:42:05;6.50;;;1.45;;
78004;SDS011;67209;51.698;-0.292;2023-02-23T15:44:31;10.13;;;1.17;;
78004;SDS011;67209;51.698;-0.292;2023-02-23T15:46:59;3.10;;;0.60;;
78004;SDS011;67209;51.698;-0.292;2023-02-23T15:49:29;7.50;;;0.85;;
78004;SDS011;67209;51.698;-0.292;2023-02-23T15:52:00;7.82;;;1.23;;
78004;SDS011;67209;51.698;-0.292;2023-02-23T15:54:29;0.80;;;0.50;;
78004;SDS011;67209;51.698;-0.292;2023-02-23T15:57:06;0.85;;;0.40;;
78004;SDS011;67209;51.698;-0.292;2023-02-23T15:59:38;7.15;;;1.27;;
78004;SDS011;67209;51.698;-0.292;2023-02-23T16:02:11;6.25;;;1.58;;
78004;SDS011;67209;51.698;-0.292;2023-02-23T16:04:38;6.13;;;0.93;;
78004;SDS011;67209;51.698;-0.292;2023-02-23T16:07:21;11.30;;;1.60;;
78004;SDS011;67209;51.698;-0.292;2023-02-23T16:10:04;7.47;;;0.80;;
78004;SDS011;67209;51.698;-0.292;2023-02-23T16:12:32;4.32;;;0.73;;
78004;SDS011;67209;51.698;-0.292;2023-02-23T16:15:01;9.60;;;1.05;;
78004;SDS011;67209;51.698;-0.292;2023-02-23T16:17:42;6.10;;;0.90;;
78004;SDS011;67209;51.698;-0.292;2023-02-23T16:22:38;3.83;;;1.13;;
78004;SDS011;67209;51.698;-0.292;2023-02-23T16:25:06;7.78;;;1.35;;
78004;SDS011;67209;51.698;-0.292;2023-02-23T16:27:33;4.28;;;0.57;;
78004;SDS011;67209;51.698;-0.292;2023-02-23T16:30:04;7.75;;;0.85;;
78004;SDS011;67209;51.698;-0.292;2023-02-23T16:32:32;4.85;;;0.93;;
78004;SDS011;67209;51.698;-0.292;2023-02-23T16:35:00;8.50;;;0.73;;
78004;SDS011;67209;51.698;-0.292;2023-02-23T16:37:26;5.47;;;0.80;;
78004;SDS011;67209;51.698;-0.292;2023-02-23T16:39:53;10.00;;;1.08;;
78004;SDS011;67209;51.698;-0.292;2023-02-23T16:44:48;2.90;;;0.60;;
78004;SDS011;67209;51.698;-0.292;2023-02-23T16:52:42;3.92;;;0.80;;
78004;SDS011;67209;51.698;-0.292;2023-02-23T16:55:11;3.35;;;0.85;;
78004;SDS011;67209;51.698;-0.292;2023-02-23T16:57:41;8.27;;;1.50;;
78004;SDS011;67209;51.698;-0.292;2023-02-23T17:00:08;7.97;;;1.02;;
78004;SDS011;67209;51.698;-0.292;2023-02-23T17:02:42;6.72;;;0.95;;
78004;SDS011;67209;51.698;-0.292;2023-02-23T17:05:10;4.38;;;1.02;;
78004;SDS011;67209;51.698;-0.292;2023-02-23T17:07:37;5.70;;;1.13;;
78004;SDS011;67209;51.698;-0.292;2023-02-23T17:10:04;5.97;;;1.25;;
78004;SDS011;67209;51.698;-0.292;2023-02-23T17:12:30;8.15;;;1.38;;
78004;SDS011;67209;51.698;-0.292;2023-02-23T17:14:57;4.50;;;0.73;;